Happy Valentine's Day! 

Flight Track Log - Related Links

Times and Time Zones

All times are in EDT time to prevent confusion due to time zone crossing. See the CSZ9963 flight status page for this flight to view local times or setup timezone preferences in your user account.


Time Position Orientation Groundspeed Altitude Reporting Facility
EDT Latitude Longitude Course Direction KTS MPH feet Rate Location/Type
Sun 12:37:00 AM 23.3152 114.3589 37° Northeast  Level Estimated
Sun 12:38:00 AM 23.4116 114.4375 37° Northeast  Level Estimated
Sun 12:39:00 AM 23.5080 114.5161 37° Northeast  Level Estimated
Sun 12:40:00 AM 23.6043 114.5949 37° Northeast  Level Estimated
Sun 12:41:00 AM 23.7005 114.6737 37° Northeast  Level Estimated
Sun 12:42:00 AM 23.7968 114.7527 37° Northeast  Level Estimated
Sun 12:43:00 AM 23.8930 114.8318 37° Northeast  Level Estimated
Sun 12:44:00 AM 23.9891 114.9110 37° Northeast  Level Estimated
Sun 12:45:00 AM 24.0852 114.9904 37° Northeast  Level Estimated
Sun 12:46:00 AM 24.1813 115.0699 37° Northeast  Level Estimated
Sun 12:47:00 AM 24.2773 115.1494 37° Northeast  Level Estimated
Sun 12:48:00 AM 24.3733 115.2291 37° Northeast  Level Estimated
Sun 12:49:00 AM 24.4692 115.3090 37° Northeast  Level Estimated
Sun 12:50:00 AM 24.5651 115.3889 37° Northeast  Level Estimated
Sun 12:51:00 AM 24.6610 115.4690 37° Northeast  Level Estimated
Sun 12:52:00 AM 24.7568 115.5491 37° Northeast  Level Estimated
Sun 12:53:00 AM 24.8525 115.6295 37° Northeast  Level Estimated
Sun 12:54:00 AM 24.9483 115.7099 37° Northeast  Level Estimated
Sun 12:55:00 AM 25.0439 115.7905 37° Northeast  Level Estimated
Sun 12:56:00 AM 25.1396 115.8711 37° Northeast  Level Estimated
Sun 12:57:00 AM 25.2352 115.9520 37° Northeast  Level Estimated
Sun 12:58:00 AM 25.3307 116.0329 37° Northeast  Level Estimated
Sun 12:59:00 AM 25.4262 116.1140 37° Northeast  Level Estimated
Sun 01:00:00 AM 25.5217 116.1952 38° Northeast  Level Estimated
Sun 01:01:00 AM 25.6171 116.2765 38° Northeast  Level Estimated
Sun 01:02:00 AM 25.7125 116.3580 38° Northeast  Level Estimated
Sun 01:03:00 AM 25.8078 116.4396 38° Northeast  Level Estimated
Sun 01:04:00 AM 25.9031 116.5213 38° Northeast  Level Estimated
Sun 01:05:00 AM 25.9983 116.6031 38° Northeast  Level Estimated
Sun 01:06:00 AM 26.0935 116.6851 38° Northeast  Level Estimated
Sun 01:07:00 AM 26.1887 116.7672 38° Northeast  Level Estimated
Sun 01:08:00 AM 26.2838 116.8495 38° Northeast  Level Estimated
Sun 01:09:00 AM 26.3788 116.9318 38° Northeast  Level Estimated
Sun 01:10:00 AM 26.4738 117.0144 38° Northeast  Level Estimated
Sun 01:11:00 AM 26.5688 117.0970 38° Northeast  Level Estimated
Sun 01:12:00 AM 26.6637 117.1798 38° Northeast  Level Estimated
Sun 01:13:00 AM 26.7586 117.2628 38° Northeast  Level Estimated
Sun 01:14:00 AM 26.8534 117.3458 38° Northeast  Level Estimated
Sun 01:15:00 AM 26.9481 117.4290 38° Northeast  Level Estimated
Sun 01:16:00 AM 27.0428 117.5124 38° Northeast  Level Estimated
Sun 01:17:00 AM 27.1375 117.5959 38° Northeast  Level Estimated
Sun 01:18:00 AM 27.2321 117.6795 38° Northeast  Level Estimated
Sun 01:19:00 AM 27.3267 117.7633 38° Northeast  Level Estimated
Sun 01:20:00 AM 27.4212 117.8472 38° Northeast  Level Estimated
Sun 01:21:00 AM 27.5157 117.9313 38° Northeast  Level Estimated
Sun 01:22:00 AM 27.6101 118.0155 38° Northeast  Level Estimated
Sun 01:23:00 AM 27.7044 118.0998 38° Northeast  Level Estimated
Sun 01:24:00 AM 27.7987 118.1843 38° Northeast  Level Estimated
Sun 01:25:00 AM 27.8930 118.2690 38° Northeast  Level Estimated
Sun 01:26:00 AM 27.9872 118.3538 38° Northeast  Level Estimated
Sun 01:27:00 AM 28.0814 118.4387 39° Northeast  Level Estimated
Sun 01:28:00 AM 28.1755 118.5238 39° Northeast  Level Estimated
Sun 01:29:00 AM 28.2695 118.6090 39° Northeast  Level Estimated
Sun 01:30:00 AM 28.3635 118.6944 39° Northeast  Level Estimated
Sun 01:31:00 AM 28.4575 118.7800 39° Northeast  Level Estimated
Sun 01:32:00 AM 28.5514 118.8657 39° Northeast  Level Estimated
Sun 01:33:00 AM 28.6452 118.9515 39° Northeast  Level Estimated
Sun 01:34:00 AM 28.7390 119.0375 39° Northeast  Level Estimated
Sun 01:35:00 AM 28.8327 119.1237 39° Northeast  Level Estimated
Sun 01:36:00 AM 28.9264 119.2100 39° Northeast  Level Estimated
Sun 01:37:00 AM 29.0200 119.2964 39° Northeast  Level Estimated
Sun 01:38:00 AM 29.1136 119.3831 39° Northeast  Level Estimated
Sun 01:39:00 AM 29.2071 119.4698 39° Northeast  Level Estimated
Sun 01:40:00 AM 29.3005 119.5568 39° Northeast  Level Estimated
Sun 01:41:00 AM 29.3939 119.6439 39° Northeast  Level Estimated
Sun 01:42:00 AM 29.4873 119.7311 39° Northeast  Level Estimated
Sun 01:43:00 AM 29.5805 119.8186 39° Northeast  Level Estimated
Sun 01:44:00 AM 29.6738 119.9061 39° Northeast  Level Estimated
Sun 01:45:00 AM 29.7669 119.9939 39° Northeast  Level Estimated
Sun 01:46:00 AM 29.8600 120.0818 39° Northeast  Level Estimated
Sun 01:47:00 AM 29.9531 120.1699 39° Northeast  Level Estimated
Sun 01:48:00 AM 30.0461 120.2581 39° Northeast  Level Estimated
Sun 01:49:00 AM 30.1390 120.3465 39° Northeast  Level Estimated
Sun 01:50:00 AM 30.2283 120.4317 39° Northeast  Level Estimated
Sun 01:51:00 AM 30.2283 120.4317 North  Level Estimated
Sun 01:52:00 AM 30.2283 120.4317 North  Level Estimated
Sun 01:53:00 AM 30.2283 120.4317 North  Level Estimated
Sun 01:54:00 AM 30.2283 120.4317 North  Level Estimated
Sun 01:55:00 AM 30.2283 120.4317 North  Level Estimated
Sun 01:56:00 AM 30.2283 120.4317 North  Level Estimated
Sun 01:57:00 AM 30.2283 120.4317 North  Level Estimated
Sun 01:58:00 AM 30.2283 120.4317 North  Level Estimated
Sun 01:59:00 AM 30.2283 120.4317 North  Level Estimated
Sun 02:00:00 AM 30.2283 120.4317 North  Level Estimated
Sun 02:01:00 AM 30.2283 120.4317 North  Level Estimated
Sun 02:02:00 AM 30.2283 120.4317 North  Level Estimated
Sun 02:03:00 AM 30.2283 120.4317 North  Level Estimated
Sun 02:04:00 AM 30.2283 120.4317 North  Level Estimated
Sun 02:05:00 AM 30.2283 120.4317 North  Level Estimated
Sun 02:06:00 AM 30.2283 120.4317 North  Level Estimated

Login

Don't have an account? Register now (free) for customized features, flight alerts, and more!